sensor_id;sensor_type;location;lat;lon;timestamp;temperature;humidity
43995;DHT22;51687;52.160;5.298;2022-12-07T00:01:32;10.90;59.00
43995;DHT22;51687;52.160;5.298;2022-12-07T00:04:01;10.90;59.20
43995;DHT22;51687;52.160;5.298;2022-12-07T00:06:37;10.80;59.20
43995;DHT22;51687;52.160;5.298;2022-12-07T00:09:05;10.80;59.20
43995;DHT22;51687;52.160;5.298;2022-12-07T00:11:33;10.80;59.20
43995;DHT22;51687;52.160;5.298;2022-12-07T00:14:02;10.80;59.20
43995;DHT22;51687;52.160;5.298;2022-12-07T00:16:31;10.80;59.00
43995;DHT22;51687;52.160;5.298;2022-12-07T00:18:59;10.80;58.80
43995;DHT22;51687;52.160;5.298;2022-12-07T00:21:28;10.70;58.50
43995;DHT22;51687;52.160;5.298;2022-12-07T00:23:56;10.70;58.40
43995;DHT22;51687;52.160;5.298;2022-12-07T00:26:26;10.70;58.40
43995;DHT22;51687;52.160;5.298;2022-12-07T00:28:55;10.70;58.30
43995;DHT22;51687;52.160;5.298;2022-12-07T00:31:28;10.70;58.30
43995;DHT22;51687;52.160;5.298;2022-12-07T00:33:56;10.70;58.40
43995;DHT22;51687;52.160;5.298;2022-12-07T00:36:24;10.70;58.50
43995;DHT22;51687;52.160;5.298;2022-12-07T00:38:54;10.60;58.60
43995;DHT22;51687;52.160;5.298;2022-12-07T00:41:23;10.60;58.60
43995;DHT22;51687;52.160;5.298;2022-12-07T00:43:51;10.60;58.60
43995;DHT22;51687;52.160;5.298;2022-12-07T00:46:19;10.60;58.50
43995;DHT22;51687;52.160;5.298;2022-12-07T00:48:47;10.60;58.40
43995;DHT22;51687;52.160;5.298;2022-12-07T00:51:15;10.60;58.40
43995;DHT22;51687;52.160;5.298;2022-12-07T00:53:42;10.60;58.30
43995;DHT22;51687;52.160;5.298;2022-12-07T00:56:12;10.60;58.20
43995;DHT22;51687;52.160;5.298;2022-12-07T00:58:39;10.60;58.00
43995;DHT22;51687;52.160;5.298;2022-12-07T01:01:07;10.60;57.70
43995;DHT22;51687;52.160;5.298;2022-12-07T01:03:34;10.60;57.60
43995;DHT22;51687;52.160;5.298;2022-12-07T01:06:02;10.60;57.60
43995;DHT22;51687;52.160;5.298;2022-12-07T01:08:29;10.50;57.40
43995;DHT22;51687;52.160;5.298;2022-12-07T01:11:01;10.50;57.40
43995;DHT22;51687;52.160;5.298;2022-12-07T01:13:29;10.50;57.30
43995;DHT22;51687;52.160;5.298;2022-12-07T01:16:01;10.50;57.20
43995;DHT22;51687;52.160;5.298;2022-12-07T01:18:29;10.50;57.40
43995;DHT22;51687;52.160;5.298;2022-12-07T01:20:58;10.40;57.30
43995;DHT22;51687;52.160;5.298;2022-12-07T01:23:25;10.40;57.40
43995;DHT22;51687;52.160;5.298;2022-12-07T01:26:00;10.40;57.40
43995;DHT22;51687;52.160;5.298;2022-12-07T01:28:27;10.40;57.20
43995;DHT22;51687;52.160;5.298;2022-12-07T01:31:02;10.40;57.20
43995;DHT22;51687;52.160;5.298;2022-12-07T01:33:33;10.40;57.10
43995;DHT22;51687;52.160;5.298;2022-12-07T01:36:21;10.30;57.00
43995;DHT22;51687;52.160;5.298;2022-12-07T01:38:51;10.30;56.80
43995;DHT22;51687;52.160;5.298;2022-12-07T01:41:20;10.30;56.90
43995;DHT22;51687;52.160;5.298;2022-12-07T01:44:14;10.30;57.00
43995;DHT22;51687;52.160;5.298;2022-12-07T01:47:02;10.30;56.90
43995;DHT22;51687;52.160;5.298;2022-12-07T01:49:39;10.20;56.80
43995;DHT22;51687;52.160;5.298;2022-12-07T01:52:23;10.20;56.80
43995;DHT22;51687;52.160;5.298;2022-12-07T01:54:53;10.20;56.70
43995;DHT22;51687;52.160;5.298;2022-12-07T01:57:21;10.20;56.60
43995;DHT22;51687;52.160;5.298;2022-12-07T01:59:49;10.20;56.50
43995;DHT22;51687;52.160;5.298;2022-12-07T02:02:27;10.20;56.30
43995;DHT22;51687;52.160;5.298;2022-12-07T02:04:55;10.20;56.20
43995;DHT22;51687;52.160;5.298;2022-12-07T02:07:24;10.20;56.20
43995;DHT22;51687;52.160;5.298;2022-12-07T02:09:51;10.20;56.30
43995;DHT22;51687;52.160;5.298;2022-12-07T02:12:18;10.20;56.50
43995;DHT22;51687;52.160;5.298;2022-12-07T02:14:46;10.10;56.50
43995;DHT22;51687;52.160;5.298;2022-12-07T02:17:32;10.10;56.60
43995;DHT22;51687;52.160;5.298;2022-12-07T02:20:30;10.10;57.10
43995;DHT22;51687;52.160;5.298;2022-12-07T02:26:29;10.10;57.40
43995;DHT22;51687;52.160;5.298;2022-12-07T02:31:50;10.10;57.30
43995;DHT22;51687;52.160;5.298;2022-12-07T02:34:20;10.10;57.30
43995;DHT22;51687;52.160;5.298;2022-12-07T02:36:54;10.10;57.30
43995;DHT22;51687;52.160;5.298;2022-12-07T02:39:44;10.00;57.40
43995;DHT22;51687;52.160;5.298;2022-12-07T02:42:17;9.90;57.60
43995;DHT22;51687;52.160;5.298;2022-12-07T02:44:45;9.90;57.70
43995;DHT22;51687;52.160;5.298;2022-12-07T02:47:15;9.90;57.90
43995;DHT22;51687;52.160;5.298;2022-12-07T02:49:43;9.90;58.10
43995;DHT22;51687;52.160;5.298;2022-12-07T02:52:11;9.90;58.20
43995;DHT22;51687;52.160;5.298;2022-12-07T02:54:37;9.80;58.40
43995;DHT22;51687;52.160;5.298;2022-12-07T02:57:20;9.80;58.60
43995;DHT22;51687;52.160;5.298;2022-12-07T03:00:09;9.80;59.00
43995;DHT22;51687;52.160;5.298;2022-12-07T03:02:49;9.80;59.10
43995;DHT22;51687;52.160;5.298;2022-12-07T03:13:33;9.80;59.00
43995;DHT22;51687;52.160;5.298;2022-12-07T03:16:09;9.80;59.20
43995;DHT22;51687;52.160;5.298;2022-12-07T03:18:52;9.80;59.30
43995;DHT22;51687;52.160;5.298;2022-12-07T03:21:56;9.80;59.30
43995;DHT22;51687;52.160;5.298;2022-12-07T03:24:18;9.80;59.30
43995;DHT22;51687;52.160;5.298;2022-12-07T03:26:52;9.80;59.40
43995;DHT22;51687;52.160;5.298;2022-12-07T03:32:36;9.80;59.30
43995;DHT22;51687;52.160;5.298;2022-12-07T03:35:17;9.80;59.40
43995;DHT22;51687;52.160;5.298;2022-12-07T03:38:04;9.80;59.00
43995;DHT22;51687;52.160;5.298;2022-12-07T03:40:44;9.80;59.10
43995;DHT22;51687;52.160;5.298;2022-12-07T03:43:17;9.80;58.90
43995;DHT22;51687;52.160;5.298;2022-12-07T03:45:53;9.80;58.80
43995;DHT22;51687;52.160;5.298;2022-12-07T03:51:14;9.70;58.90
43995;DHT22;51687;52.160;5.298;2022-12-07T03:53:51;9.70;59.30
43995;DHT22;51687;52.160;5.298;2022-12-07T03:56:21;9.70;59.20
43995;DHT22;51687;52.160;5.298;2022-12-07T03:58:49;9.70;59.30
43995;DHT22;51687;52.160;5.298;2022-12-07T04:01:17;9.70;59.50
43995;DHT22;51687;52.160;5.298;2022-12-07T04:03:44;9.70;59.60
43995;DHT22;51687;52.160;5.298;2022-12-07T04:06:11;9.70;59.60
43995;DHT22;51687;52.160;5.298;2022-12-07T04:08:38;9.70;59.60
43995;DHT22;51687;52.160;5.298;2022-12-07T04:11:05;9.80;59.70
43995;DHT22;51687;52.160;5.298;2022-12-07T04:13:31;9.70;59.90
43995;DHT22;51687;52.160;5.298;2022-12-07T04:16:18;9.70;60.00
43995;DHT22;51687;52.160;5.298;2022-12-07T04:18:45;9.70;60.10
43995;DHT22;51687;52.160;5.298;2022-12-07T04:21:14;9.70;60.20
43995;DHT22;51687;52.160;5.298;2022-12-07T04:23:41;9.70;60.40
43995;DHT22;51687;52.160;5.298;2022-12-07T04:26:08;9.70;60.40
43995;DHT22;51687;52.160;5.298;2022-12-07T04:28:34;9.70;60.40
43995;DHT22;51687;52.160;5.298;2022-12-07T04:31:02;9.70;60.50
43995;DHT22;51687;52.160;5.298;2022-12-07T04:33:29;9.70;60.40
43995;DHT22;51687;52.160;5.298;2022-12-07T04:35:56;9.70;60.30
43995;DHT22;51687;52.160;5.298;2022-12-07T04:38:22;9.70;61.00
43995;DHT22;51687;52.160;5.298;2022-12-07T04:40:49;9.70;60.50
43995;DHT22;51687;52.160;5.298;2022-12-07T04:43:16;9.70;60.60
43995;DHT22;51687;52.160;5.298;2022-12-07T04:45:47;9.70;60.90
43995;DHT22;51687;52.160;5.298;2022-12-07T04:48:14;9.70;61.20
43995;DHT22;51687;52.160;5.298;2022-12-07T04:50:40;9.70;61.30
43995;DHT22;51687;52.160;5.298;2022-12-07T04:53:12;9.80;61.40
43995;DHT22;51687;52.160;5.298;2022-12-07T04:55:38;9.80;61.40
43995;DHT22;51687;52.160;5.298;2022-12-07T04:58:05;9.80;61.40
43995;DHT22;51687;52.160;5.298;2022-12-07T05:00:31;9.80;61.30
43995;DHT22;51687;52.160;5.298;2022-12-07T05:02:58;9.80;61.20
43995;DHT22;51687;52.160;5.298;2022-12-07T05:05:25;9.80;61.10
43995;DHT22;51687;52.160;5.298;2022-12-07T05:07:53;9.80;61.00
43995;DHT22;51687;52.160;5.298;2022-12-07T05:10:19;9.80;60.90
43995;DHT22;51687;52.160;5.298;2022-12-07T05:12:46;9.80;60.70
43995;DHT22;51687;52.160;5.298;2022-12-07T05:15:14;9.80;60.50
43995;DHT22;51687;52.160;5.298;2022-12-07T05:17:41;9.80;60.30
43995;DHT22;51687;52.160;5.298;2022-12-07T05:20:09;9.80;60.30
43995;DHT22;51687;52.160;5.298;2022-12-07T05:22:36;9.80;60.00
43995;DHT22;51687;52.160;5.298;2022-12-07T05:25:02;9.80;60.20
43995;DHT22;51687;52.160;5.298;2022-12-07T05:27:29;9.80;59.90
43995;DHT22;51687;52.160;5.298;2022-12-07T05:29:56;9.70;59.60
43995;DHT22;51687;52.160;5.298;2022-12-07T05:32:23;9.80;59.50
43995;DHT22;51687;52.160;5.298;2022-12-07T05:34:50;9.70;59.30
43995;DHT22;51687;52.160;5.298;2022-12-07T05:37:17;9.70;59.20
43995;DHT22;51687;52.160;5.298;2022-12-07T05:39:44;9.70;59.20
43995;DHT22;51687;52.160;5.298;2022-12-07T05:42:11;9.70;59.20
43995;DHT22;51687;52.160;5.298;2022-12-07T05:44:42;9.70;59.10
43995;DHT22;51687;52.160;5.298;2022-12-07T05:47:10;9.70;59.10
43995;DHT22;51687;52.160;5.298;2022-12-07T05:49:37;9.60;59.20
43995;DHT22;51687;52.160;5.298;2022-12-07T05:52:04;9.70;59.10
43995;DHT22;51687;52.160;5.298;2022-12-07T05:54:31;9.70;59.10
43995;DHT22;51687;52.160;5.298;2022-12-07T05:56:57;9.70;59.10
43995;DHT22;51687;52.160;5.298;2022-12-07T05:59:24;9.70;59.10
43995;DHT22;51687;52.160;5.298;2022-12-07T06:01:52;9.60;59.20
43995;DHT22;51687;52.160;5.298;2022-12-07T06:04:20;9.60;59.30
43995;DHT22;51687;52.160;5.298;2022-12-07T06:06:47;9.60;59.50
43995;DHT22;51687;52.160;5.298;2022-12-07T06:09:14;9.50;60.00
43995;DHT22;51687;52.160;5.298;2022-12-07T06:11:41;9.70;60.20
43995;DHT22;51687;52.160;5.298;2022-12-07T06:14:27;9.80;60.00
43995;DHT22;51687;52.160;5.298;2022-12-07T06:16:53;10.00;59.80
43995;DHT22;51687;52.160;5.298;2022-12-07T06:19:20;10.20;59.50
43995;DHT22;51687;52.160;5.298;2022-12-07T06:21:47;10.40;59.10
43995;DHT22;51687;52.160;5.298;2022-12-07T06:24:16;10.60;58.80
43995;DHT22;51687;52.160;5.298;2022-12-07T06:26:43;10.80;58.60
43995;DHT22;51687;52.160;5.298;2022-12-07T06:29:12;10.90;59.40
43995;DHT22;51687;52.160;5.298;2022-12-07T06:31:39;11.10;57.80
43995;DHT22;51687;52.160;5.298;2022-12-07T06:34:12;11.10;56.80
43995;DHT22;51687;52.160;5.298;2022-12-07T06:36:39;11.10;56.20
43995;DHT22;51687;52.160;5.298;2022-12-07T06:39:06;11.10;56.40
43995;DHT22;51687;52.160;5.298;2022-12-07T06:41:38;11.10;56.30
43995;DHT22;51687;52.160;5.298;2022-12-07T06:44:06;11.10;56.10
43995;DHT22;51687;52.160;5.298;2022-12-07T06:46:33;11.20;56.20
43995;DHT22;51687;52.160;5.298;2022-12-07T06:49:03;11.20;56.00
43995;DHT22;51687;52.160;5.298;2022-12-07T06:51:30;11.30;55.80
43995;DHT22;51687;52.160;5.298;2022-12-07T06:53:57;11.20;55.90
43995;DHT22;51687;52.160;5.298;2022-12-07T06:56:24;11.30;55.80
43995;DHT22;51687;52.160;5.298;2022-12-07T06:58:50;11.40;55.70
43995;DHT22;51687;52.160;5.298;2022-12-07T07:01:19;11.40;55.30
43995;DHT22;51687;52.160;5.298;2022-12-07T07:03:46;11.50;55.10
43995;DHT22;51687;52.160;5.298;2022-12-07T07:06:14;11.60;54.80
43995;DHT22;51687;52.160;5.298;2022-12-07T07:08:41;11.70;54.00
43995;DHT22;51687;52.160;5.298;2022-12-07T07:11:09;11.60;53.70
43995;DHT22;51687;52.160;5.298;2022-12-07T07:13:36;11.50;53.90
43995;DHT22;51687;52.160;5.298;2022-12-07T07:16:04;11.40;54.20
43995;DHT22;51687;52.160;5.298;2022-12-07T07:18:31;11.30;54.60
43995;DHT22;51687;52.160;5.298;2022-12-07T07:20:57;11.40;54.80
43995;DHT22;51687;52.160;5.298;2022-12-07T07:23:25;11.50;55.30
43995;DHT22;51687;52.160;5.298;2022-12-07T07:25:52;11.60;54.40
43995;DHT22;51687;52.160;5.298;2022-12-07T07:28:19;11.60;54.00
43995;DHT22;51687;52.160;5.298;2022-12-07T07:30:46;11.70;53.60
43995;DHT22;51687;52.160;5.298;2022-12-07T07:33:13;11.70;53.40
43995;DHT22;51687;52.160;5.298;2022-12-07T07:35:39;11.60;53.30
43995;DHT22;51687;52.160;5.298;2022-12-07T07:38:07;11.70;53.00
43995;DHT22;51687;52.160;5.298;2022-12-07T07:40:34;11.70;53.00
43995;DHT22;51687;52.160;5.298;2022-12-07T07:43:01;11.60;53.10
43995;DHT22;51687;52.160;5.298;2022-12-07T07:45:28;11.60;52.70
43995;DHT22;51687;52.160;5.298;2022-12-07T07:47:55;11.60;52.80
43995;DHT22;51687;52.160;5.298;2022-12-07T07:50:22;11.50;52.90
43995;DHT22;51687;52.160;5.298;2022-12-07T07:52:49;11.50;52.70
43995;DHT22;51687;52.160;5.298;2022-12-07T07:55:17;11.40;52.80
43995;DHT22;51687;52.160;5.298;2022-12-07T07:57:43;11.50;53.00
43995;DHT22;51687;52.160;5.298;2022-12-07T08:00:18;11.50;52.80
43995;DHT22;51687;52.160;5.298;2022-12-07T08:02:45;11.60;52.70
43995;DHT22;51687;52.160;5.298;2022-12-07T08:05:13;11.70;52.50
43995;DHT22;51687;52.160;5.298;2022-12-07T08:07:40;11.80;52.30
43995;DHT22;51687;52.160;5.298;2022-12-07T08:10:10;11.90;52.10
43995;DHT22;51687;52.160;5.298;2022-12-07T08:12:38;12.00;52.10
43995;DHT22;51687;52.160;5.298;2022-12-07T08:15:29;12.10;52.00
43995;DHT22;51687;52.160;5.298;2022-12-07T08:17:56;12.10;52.70
43995;DHT22;51687;52.160;5.298;2022-12-07T08:20:23;12.20;52.40
43995;DHT22;51687;52.160;5.298;2022-12-07T08:22:51;12.20;52.50
43995;DHT22;51687;52.160;5.298;2022-12-07T08:25:18;12.20;52.50
43995;DHT22;51687;52.160;5.298;2022-12-07T08:27:45;12.20;52.90
43995;DHT22;51687;52.160;5.298;2022-12-07T08:30:12;12.20;53.30
43995;DHT22;51687;52.160;5.298;2022-12-07T08:32:38;12.10;53.30
43995;DHT22;51687;52.160;5.298;2022-12-07T08:35:05;12.00;53.50
43995;DHT22;51687;52.160;5.298;2022-12-07T08:37:32;11.90;53.60
43995;DHT22;51687;52.160;5.298;2022-12-07T08:39:59;11.90;53.90
43995;DHT22;51687;52.160;5.298;2022-12-07T08:42:27;11.90;54.20
43995;DHT22;51687;52.160;5.298;2022-12-07T08:44:56;11.90;54.50
43995;DHT22;51687;52.160;5.298;2022-12-07T08:47:24;12.00;54.50
43995;DHT22;51687;52.160;5.298;2022-12-07T08:49:53;12.10;54.60
43995;DHT22;51687;52.160;5.298;2022-12-07T08:52:20;12.10;54.50
43995;DHT22;51687;52.160;5.298;2022-12-07T08:54:48;12.20;54.50
43995;DHT22;51687;52.160;5.298;2022-12-07T08:57:15;12.30;54.50
43995;DHT22;51687;52.160;5.298;2022-12-07T08:59:42;12.30;54.30
43995;DHT22;51687;52.160;5.298;2022-12-07T09:02:08;12.30;54.40
43995;DHT22;51687;52.160;5.298;2022-12-07T09:04:35;12.10;54.70
43995;DHT22;51687;52.160;5.298;2022-12-07T09:07:02;12.00;55.40
43995;DHT22;51687;52.160;5.298;2022-12-07T09:09:30;12.00;55.60
43995;DHT22;51687;52.160;5.298;2022-12-07T09:11:57;11.90;55.80
43995;DHT22;51687;52.160;5.298;2022-12-07T09:14:24;11.80;56.00
43995;DHT22;51687;52.160;5.298;2022-12-07T09:16:51;11.80;56.40
43995;DHT22;51687;52.160;5.298;2022-12-07T09:19:17;11.80;56.50
43995;DHT22;51687;52.160;5.298;2022-12-07T09:21:44;11.90;56.40
43995;DHT22;51687;52.160;5.298;2022-12-07T09:24:12;11.80;56.80
43995;DHT22;51687;52.160;5.298;2022-12-07T09:26:39;11.80;56.80
43995;DHT22;51687;52.160;5.298;2022-12-07T09:29:06;11.90;57.20
43995;DHT22;51687;52.160;5.298;2022-12-07T09:31:36;11.90;57.00
43995;DHT22;51687;52.160;5.298;2022-12-07T09:34:02;11.90;57.00
43995;DHT22;51687;52.160;5.298;2022-12-07T09:36:31;12.00;57.10
43995;DHT22;51687;52.160;5.298;2022-12-07T09:38:58;12.00;57.00
43995;DHT22;51687;52.160;5.298;2022-12-07T09:41:26;12.10;57.30
43995;DHT22;51687;52.160;5.298;2022-12-07T09:43:55;12.20;57.20
43995;DHT22;51687;52.160;5.298;2022-12-07T09:46:24;12.30;57.40
43995;DHT22;51687;52.160;5.298;2022-12-07T09:48:52;12.30;57.10
43995;DHT22;51687;52.160;5.298;2022-12-07T09:51:21;12.30;57.20
43995;DHT22;51687;52.160;5.298;2022-12-07T09:53:52;12.30;57.20
43995;DHT22;51687;52.160;5.298;2022-12-07T09:56:20;12.40;57.10
43995;DHT22;51687;52.160;5.298;2022-12-07T09:58:48;12.40;56.80
43995;DHT22;51687;52.160;5.298;2022-12-07T10:01:18;12.50;57.00
43995;DHT22;51687;52.160;5.298;2022-12-07T10:03:54;12.50;56.50
43995;DHT22;51687;52.160;5.298;2022-12-07T10:06:21;12.50;56.40
43995;DHT22;51687;52.160;5.298;2022-12-07T10:08:48;12.50;56.70
43995;DHT22;51687;52.160;5.298;2022-12-07T10:11:15;12.40;57.00
43995;DHT22;51687;52.160;5.298;2022-12-07T10:13:45;12.40;57.00
43995;DHT22;51687;52.160;5.298;2022-12-07T10:19:23;12.20;57.10
43995;DHT22;51687;52.160;5.298;2022-12-07T10:22:19;12.20;57.70
43995;DHT22;51687;52.160;5.298;2022-12-07T10:24:47;12.30;57.30
43995;DHT22;51687;52.160;5.298;2022-12-07T10:27:19;12.20;57.10
43995;DHT22;51687;52.160;5.298;2022-12-07T10:29:50;12.30;57.40
43995;DHT22;51687;52.160;5.298;2022-12-07T10:34:44;12.20;57.70
43995;DHT22;51687;52.160;5.298;2022-12-07T10:37:19;12.20;58.00
43995;DHT22;51687;52.160;5.298;2022-12-07T10:44:44;12.40;58.90
43995;DHT22;51687;52.160;5.298;2022-12-07T10:53:22;12.50;57.40
43995;DHT22;51687;52.160;5.298;2022-12-07T10:58:31;12.60;58.60
43995;DHT22;51687;52.160;5.298;2022-12-07T11:09:43;12.80;56.40
43995;DHT22;51687;52.160;5.298;2022-12-07T11:12:42;12.80;56.30
43995;DHT22;51687;52.160;5.298;2022-12-07T11:18:39;12.80;56.50
43995;DHT22;51687;52.160;5.298;2022-12-07T11:21:30;12.80;56.00
43995;DHT22;51687;52.160;5.298;2022-12-07T11:24:16;12.70;56.10
43995;DHT22;51687;52.160;5.298;2022-12-07T11:38:07;12.70;57.70
43995;DHT22;51687;52.160;5.298;2022-12-07T11:40:36;12.70;57.40
43995;DHT22;51687;52.160;5.298;2022-12-07T11:45:34;12.80;56.70
43995;DHT22;51687;52.160;5.298;2022-12-07T11:48:10;12.90;56.80
43995;DHT22;51687;52.160;5.298;2022-12-07T11:50:54;13.00;56.40
43995;DHT22;51687;52.160;5.298;2022-12-07T11:53:40;13.10;56.40
43995;DHT22;51687;52.160;5.298;2022-12-07T12:01:50;13.40;54.10
43995;DHT22;51687;52.160;5.298;2022-12-07T12:06:54;13.00;53.90
43995;DHT22;51687;52.160;5.298;2022-12-07T12:09:48;12.80;54.70
43995;DHT22;51687;52.160;5.298;2022-12-07T12:12:56;12.60;55.10
43995;DHT22;51687;52.160;5.298;2022-12-07T12:21:08;12.30;56.70
43995;DHT22;51687;52.160;5.298;2022-12-07T12:23:43;12.40;56.70
43995;DHT22;51687;52.160;5.298;2022-12-07T12:26:18;12.50;55.90
43995;DHT22;51687;52.160;5.298;2022-12-07T12:28:50;12.50;56.10
43995;DHT22;51687;52.160;5.298;2022-12-07T12:33:51;12.60;56.00
43995;DHT22;51687;52.160;5.298;2022-12-07T12:36:28;12.70;56.00
43995;DHT22;51687;52.160;5.298;2022-12-07T12:39:17;12.70;55.60
43995;DHT22;51687;52.160;5.298;2022-12-07T12:51:47;13.00;57.10
43995;DHT22;51687;52.160;5.298;2022-12-07T12:59:30;13.40;55.30
43995;DHT22;51687;52.160;5.298;2022-12-07T13:12:31;13.40;54.80
43995;DHT22;51687;52.160;5.298;2022-12-07T13:14:58;13.70;54.10
43995;DHT22;51687;52.160;5.298;2022-12-07T13:20:01;13.90;53.50
43995;DHT22;51687;52.160;5.298;2022-12-07T13:22:39;13.90;52.90
43995;DHT22;51687;52.160;5.298;2022-12-07T13:25:08;13.90;53.30
43995;DHT22;51687;52.160;5.298;2022-12-07T13:27:40;13.90;54.20
43995;DHT22;51687;52.160;5.298;2022-12-07T13:30:20;13.90;53.80
43995;DHT22;51687;52.160;5.298;2022-12-07T13:32:55;13.90;53.90
43995;DHT22;51687;52.160;5.298;2022-12-07T13:35:37;13.90;53.70
43995;DHT22;51687;52.160;5.298;2022-12-07T13:38:13;13.90;54.10
43995;DHT22;51687;52.160;5.298;2022-12-07T13:40:42;14.00;54.30
43995;DHT22;51687;52.160;5.298;2022-12-07T13:43:14;14.00;54.50
43995;DHT22;51687;52.160;5.298;2022-12-07T13:45:41;14.10;54.20
43995;DHT22;51687;52.160;5.298;2022-12-07T13:48:46;14.20;54.20
43995;DHT22;51687;52.160;5.298;2022-12-07T13:51:25;14.20;54.20
43995;DHT22;51687;52.160;5.298;2022-12-07T13:53:54;14.30;54.20
43995;DHT22;51687;52.160;5.298;2022-12-07T13:56:25;14.30;54.20
43995;DHT22;51687;52.160;5.298;2022-12-07T13:58:53;14.40;54.20
43995;DHT22;51687;52.160;5.298;2022-12-07T14:01:21;14.40;54.20
43995;DHT22;51687;52.160;5.298;2022-12-07T14:06:24;14.50;54.10
43995;DHT22;51687;52.160;5.298;2022-12-07T14:09:09;14.50;53.80
43995;DHT22;51687;52.160;5.298;2022-12-07T14:11:43;14.50;53.80
43995;DHT22;51687;52.160;5.298;2022-12-07T14:14:15;14.50;54.10
43995;DHT22;51687;52.160;5.298;2022-12-07T14:16:43;14.40;54.10
43995;DHT22;51687;52.160;5.298;2022-12-07T14:22:27;14.40;53.70
43995;DHT22;51687;52.160;5.298;2022-12-07T14:27:54;14.30;53.70
43995;DHT22;51687;52.160;5.298;2022-12-07T14:30:25;14.30;53.70
43995;DHT22;51687;52.160;5.298;2022-12-07T14:32:56;14.20;52.90
43995;DHT22;51687;52.160;5.298;2022-12-07T14:35:23;14.20;52.50
43995;DHT22;51687;52.160;5.298;2022-12-07T14:37:50;14.10;52.40
43995;DHT22;51687;52.160;5.298;2022-12-07T14:40:22;14.10;52.60
43995;DHT22;51687;52.160;5.298;2022-12-07T14:42:56;14.10;51.90
43995;DHT22;51687;52.160;5.298;2022-12-07T14:45:23;14.10;51.90
43995;DHT22;51687;52.160;5.298;2022-12-07T14:47:50;14.10;51.90
43995;DHT22;51687;52.160;5.298;2022-12-07T14:50:50;14.00;52.20
43995;DHT22;51687;52.160;5.298;2022-12-07T14:53:41;14.00;52.50
43995;DHT22;51687;52.160;5.298;2022-12-07T14:56:09;14.00;52.80
43995;DHT22;51687;52.160;5.298;2022-12-07T14:58:36;14.00;52.90
43995;DHT22;51687;52.160;5.298;2022-12-07T15:01:03;14.10;52.50
43995;DHT22;51687;52.160;5.298;2022-12-07T15:03:30;14.10;52.60
43995;DHT22;51687;52.160;5.298;2022-12-07T15:05:57;14.10;52.60
43995;DHT22;51687;52.160;5.298;2022-12-07T15:08:25;14.20;52.70
43995;DHT22;51687;52.160;5.298;2022-12-07T15:10:52;14.20;52.50
43995;DHT22;51687;52.160;5.298;2022-12-07T15:13:19;14.30;52.40
43995;DHT22;51687;52.160;5.298;2022-12-07T15:16:07;14.40;52.10
43995;DHT22;51687;52.160;5.298;2022-12-07T15:18:35;14.30;51.90
43995;DHT22;51687;52.160;5.298;2022-12-07T15:21:02;14.20;51.90
43995;DHT22;51687;52.160;5.298;2022-12-07T15:23:29;14.20;52.20
43995;DHT22;51687;52.160;5.298;2022-12-07T15:25:56;14.20;52.20
43995;DHT22;51687;52.160;5.298;2022-12-07T15:28:22;14.10;52.10
43995;DHT22;51687;52.160;5.298;2022-12-07T15:30:49;14.10;52.20
43995;DHT22;51687;52.160;5.298;2022-12-07T15:33:16;14.10;51.60
43995;DHT22;51687;52.160;5.298;2022-12-07T15:35:44;13.90;51.80
43995;DHT22;51687;52.160;5.298;2022-12-07T15:38:12;13.60;52.30
43995;DHT22;51687;52.160;5.298;2022-12-07T15:40:39;13.40;52.80
43995;DHT22;51687;52.160;5.298;2022-12-07T15:43:05;13.20;53.40
43995;DHT22;51687;52.160;5.298;2022-12-07T15:45:54;13.00;53.80
43995;DHT22;51687;52.160;5.298;2022-12-07T15:48:21;12.80;54.40
43995;DHT22;51687;52.160;5.298;2022-12-07T15:51:06;12.60;54.80
43995;DHT22;51687;52.160;5.298;2022-12-07T15:53:34;12.50;55.30
43995;DHT22;51687;52.160;5.298;2022-12-07T15:56:05;12.40;55.50
43995;DHT22;51687;52.160;5.298;2022-12-07T15:58:32;12.20;55.70
43995;DHT22;51687;52.160;5.298;2022-12-07T16:00:59;12.10;56.10
43995;DHT22;51687;52.160;5.298;2022-12-07T16:03:27;11.90;56.60
43995;DHT22;51687;52.160;5.298;2022-12-07T16:05:53;11.80;56.80
43995;DHT22;51687;52.160;5.298;2022-12-07T16:08:20;11.70;57.00
43995;DHT22;51687;52.160;5.298;2022-12-07T16:10:47;11.60;57.00
43995;DHT22;51687;52.160;5.298;2022-12-07T16:13:14;11.50;57.60
43995;DHT22;51687;52.160;5.298;2022-12-07T16:15:41;11.40;57.50
43995;DHT22;51687;52.160;5.298;2022-12-07T16:18:08;11.30;57.80
43995;DHT22;51687;52.160;5.298;2022-12-07T16:20:35;11.30;57.80
43995;DHT22;51687;52.160;5.298;2022-12-07T16:23:02;11.20;58.10
43995;DHT22;51687;52.160;5.298;2022-12-07T16:25:29;11.20;58.50
43995;DHT22;51687;52.160;5.298;2022-12-07T16:27:55;11.20;58.70
43995;DHT22;51687;52.160;5.298;2022-12-07T16:30:22;11.20;58.70
43995;DHT22;51687;52.160;5.298;2022-12-07T16:32:49;11.10;58.60
43995;DHT22;51687;52.160;5.298;2022-12-07T16:35:17;11.00;58.90
43995;DHT22;51687;52.160;5.298;2022-12-07T16:37:44;11.00;59.30
43995;DHT22;51687;52.160;5.298;2022-12-07T16:40:11;10.90;59.50
43995;DHT22;51687;52.160;5.298;2022-12-07T16:42:38;10.90;59.60
43995;DHT22;51687;52.160;5.298;2022-12-07T16:45:05;10.90;59.50
43995;DHT22;51687;52.160;5.298;2022-12-07T16:47:32;10.90;59.50
43995;DHT22;51687;52.160;5.298;2022-12-07T16:49:58;10.80;59.60
43995;DHT22;51687;52.160;5.298;2022-12-07T16:52:25;10.70;59.80
43995;DHT22;51687;52.160;5.298;2022-12-07T16:54:52;10.60;60.00
43995;DHT22;51687;52.160;5.298;2022-12-07T16:57:19;10.60;60.40
43995;DHT22;51687;52.160;5.298;2022-12-07T16:59:49;10.50;60.40
43995;DHT22;51687;52.160;5.298;2022-12-07T17:02:16;10.50;60.50
43995;DHT22;51687;52.160;5.298;2022-12-07T17:04:43;10.40;60.70
43995;DHT22;51687;52.160;5.298;2022-12-07T17:07:10;10.40;60.70
43995;DHT22;51687;52.160;5.298;2022-12-07T17:09:37;10.30;60.90
43995;DHT22;51687;52.160;5.298;2022-12-07T17:12:04;10.40;61.20
43995;DHT22;51687;52.160;5.298;2022-12-07T17:14:32;10.50;61.10
43995;DHT22;51687;52.160;5.298;2022-12-07T17:17:17;10.70;60.80
43995;DHT22;51687;52.160;5.298;2022-12-07T17:19:44;10.90;60.20
43995;DHT22;51687;52.160;5.298;2022-12-07T17:22:13;11.10;60.00
43995;DHT22;51687;52.160;5.298;2022-12-07T17:24:39;11.40;61.00
43995;DHT22;51687;52.160;5.298;2022-12-07T17:27:06;11.60;59.30
43995;DHT22;51687;52.160;5.298;2022-12-07T17:29:33;11.70;58.00
43995;DHT22;51687;52.160;5.298;2022-12-07T17:31:59;11.60;57.80
43995;DHT22;51687;52.160;5.298;2022-12-07T17:34:26;11.50;58.00
43995;DHT22;51687;52.160;5.298;2022-12-07T17:36:54;11.40;58.20
43995;DHT22;51687;52.160;5.298;2022-12-07T17:39:21;11.30;58.40
43995;DHT22;51687;52.160;5.298;2022-12-07T17:41:48;11.30;59.00
43995;DHT22;51687;52.160;5.298;2022-12-07T17:44:34;11.30;59.10
43995;DHT22;51687;52.160;5.298;2022-12-07T17:47:01;11.50;59.10
43995;DHT22;51687;52.160;5.298;2022-12-07T17:49:29;11.60;58.70
43995;DHT22;51687;52.160;5.298;2022-12-07T17:51:56;11.80;58.70
43995;DHT22;51687;52.160;5.298;2022-12-07T17:54:42;11.90;58.80